Lulu Pass Weather Station

This weather station provides temperature, relative humidity (RH), wind speed, gust or max wind speed, and wind direction at 10014ft near Lulu Pass at the head of Fisher Creek. This data can be used with temperature and precipitation data from the Fisher Creek SNOTEL site.

This weather station was purchased by the Friends of the Avalanche Center.

If the data has not been updated recently you can view it directly on datagarrison.com

Elevation
10014ft
Jump to table bottom
Date Time Temperature
deg F
RH, % Wind Speed Wind Gust Wind Direction
09/19/19 05:00 40.3 52 3 13 NE - 49
09/19/19 04:00 39.6 56 3 10 W - 286
09/19/19 03:00 40.4 57 2 8 NW - 293
09/19/19 02:00 39.0 53 3 10 S - 170
09/19/19 01:00 41.9 49 9 14 SE - 157
09/19/19 00:00 42.3 47 10 18 S - 166
09/18/19 23:00 42.7 46 10 22 S - 174
09/18/19 22:00 43.9 44 12 22 S - 173
09/18/19 21:00 43.8 42 11 21 S - 177
09/18/19 20:00 43.9 42 8 16 S - 191
09/18/19 19:00 45.0 39 10 28 S - 197
09/18/19 18:00 46.9 38 15 29 S - 202
09/18/19 17:00 48.0 41 17 29 SW - 208
09/18/19 16:00 47.2 45 15 31 SW - 204
09/18/19 15:00 45.2 52 12 29 S - 202
09/18/19 14:00 45.7 61 14 28 SW - 205
09/18/19 13:00 42.6 67 7 17 S - 198
09/18/19 12:00 39.2 69 7 15 S - 201
09/18/19 11:00 40.8 67 4 10 S - 181
09/18/19 10:00 37.4 72 7 14 S - 178
09/18/19 09:00 33.1 78 7 13 S - 201
09/18/19 08:00 31.4 83 7 15 S - 192
09/18/19 07:00 29.8 88 9 16 SW - 208
09/18/19 06:00 28.5 91 6 14 SW - 232
09/18/19 05:00 27.6 93 6 15 W - 275
09/18/19 04:00 27.5 97 8 15 W - 248
09/18/19 03:00 27.9 99 7 19 S - 199
09/18/19 02:00 28.3 99 9 19 SW - 213
09/18/19 01:00 28.7 99 7 16 SW - 206
09/18/19 00:00 28.9 100 8 18 SW - 212
09/17/19 23:00 29.4 100 9 20 SW - 211
09/17/19 22:00 29.6 100 10 22 SW - 226
09/17/19 21:00 29.5 99 9 20 SW - 239
09/17/19 20:00 29.0 99 9 23 SW - 240
09/17/19 19:00 28.7 99 10 23 SW - 236
09/17/19 18:00 28.4 99 9 22 SW - 244
09/17/19 17:00 28.0 98 13 34 SW - 239
09/17/19 16:00 28.2 98 13 33 SW - 236
09/17/19 15:00 30.1 99 11 25 SW - 234
09/17/19 14:00 30.9 99 7 25 W - 250
09/17/19 13:00 31.3 99 6 12 W - 267
09/17/19 12:00 30.5 99 7 15 W - 288
09/17/19 11:00 31.1 99 7 14 SW - 236
09/17/19 10:00 31.3 99 7 17 W - 260
09/17/19 09:00 32.2 98 7 15 SW - 240
09/17/19 08:00 32.7 98 6 14 W - 254
09/17/19 07:00 34.2 95 8 21 SW - 216
09/17/19 06:00 36.2 85 9 25 SW - 206
09/17/19 05:00 40.3 75 12 28 S - 192
09/17/19 04:00 42.2 77 18 38 S - 181